createdAt,value
2023-03-19T00:00:19.989Z,100.00
2023-03-19T00:02:51.255Z,100.00
2023-03-19T00:05:19.106Z,100.00
2023-03-19T00:07:45.896Z,100.00
2023-03-19T00:10:12.488Z,100.00
2023-03-19T00:12:39.100Z,100.00
2023-03-19T00:15:09.080Z,100.00
2023-03-19T00:17:35.918Z,100.00
2023-03-19T00:20:02.463Z,100.00
2023-03-19T00:22:29.024Z,100.00
2023-03-19T00:24:55.583Z,100.00
2023-03-19T00:27:22.034Z,100.00
2023-03-19T00:29:48.715Z,100.00
2023-03-19T00:32:15.702Z,100.00
2023-03-19T00:34:43.160Z,100.00
2023-03-19T00:37:09.697Z,100.00
2023-03-19T00:39:36.232Z,100.00
2023-03-19T00:42:02.754Z,100.00
2023-03-19T00:44:29.238Z,100.00
2023-03-19T00:46:55.716Z,100.00
2023-03-19T00:49:22.377Z,100.00
2023-03-19T00:51:48.930Z,100.00
2023-03-19T00:54:15.464Z,100.00
2023-03-19T00:56:42.053Z,100.00
2023-03-19T00:59:08.737Z,100.00
2023-03-19T01:01:35.408Z,100.00
2023-03-19T01:04:02.006Z,100.00
2023-03-19T01:06:28.588Z,100.00
2023-03-19T01:08:55.378Z,100.00
2023-03-19T01:11:21.941Z,100.00
2023-03-19T01:13:48.507Z,100.00
2023-03-19T01:16:14.952Z,100.00
2023-03-19T01:18:41.657Z,100.00
2023-03-19T01:21:08.376Z,100.00
2023-03-19T01:23:34.984Z,100.00
2023-03-19T01:26:01.865Z,100.00
2023-03-19T01:28:28.375Z,100.00
2023-03-19T01:31:00.059Z,100.00
2023-03-19T01:33:26.841Z,100.00
2023-03-19T01:35:53.434Z,100.00
2023-03-19T01:38:19.932Z,100.00
2023-03-19T01:40:47.985Z,100.00
2023-03-19T01:43:19.979Z,100.00
2023-03-19T01:45:48.968Z,100.00
2023-03-19T01:48:27.524Z,100.00
2023-03-19T01:50:55.552Z,100.00
2023-03-19T01:53:30.049Z,100.00
2023-03-19T01:56:02.936Z,100.00
2023-03-19T01:58:30.007Z,100.00
2023-03-19T02:00:57.291Z,100.00
2023-03-19T02:03:25.233Z,100.00
2023-03-19T02:05:53.227Z,100.00
2023-03-19T02:08:23.059Z,100.00
2023-03-19T02:10:51.544Z,100.00
2023-03-19T02:13:18.190Z,100.00
2023-03-19T02:15:44.935Z,100.00
2023-03-19T02:18:12.062Z,100.00
2023-03-19T02:20:49.550Z,100.00
2023-03-19T02:23:38.555Z,100.00
2023-03-19T02:26:14.585Z,100.00
2023-03-19T02:28:46.560Z,100.00
2023-03-19T02:31:13.838Z,100.00
2023-03-19T02:33:41.045Z,100.00
2023-03-19T02:36:13.580Z,100.00
2023-03-19T02:38:42.880Z,100.00
2023-03-19T02:41:09.961Z,100.00
2023-03-19T02:43:38.693Z,100.00
2023-03-19T02:46:08.342Z,100.00
2023-03-19T02:48:35.101Z,100.00
2023-03-19T02:51:01.820Z,100.00
2023-03-19T02:53:28.381Z,100.00
2023-03-19T02:55:55.015Z,100.00
2023-03-19T02:58:21.733Z,100.00
2023-03-19T03:00:48.585Z,100.00
2023-03-19T03:03:15.177Z,100.00
2023-03-19T03:05:41.679Z,100.00
2023-03-19T03:08:09.392Z,100.00
2023-03-19T03:10:36.448Z,100.00
2023-03-19T03:13:03.264Z,100.00
2023-03-19T03:15:29.850Z,100.00
2023-03-19T03:17:57.001Z,100.00
2023-03-19T03:20:24.792Z,100.00
2023-03-19T03:22:52.003Z,100.00
2023-03-19T03:25:18.542Z,100.00
2023-03-19T03:27:45.063Z,100.00
2023-03-19T03:30:12.856Z,100.00
2023-03-19T03:32:39.985Z,100.00
2023-03-19T03:35:08.454Z,100.00
2023-03-19T03:37:35.592Z,100.00
2023-03-19T03:40:04.249Z,100.00
2023-03-19T03:42:30.976Z,100.00
2023-03-19T03:44:57.421Z,100.00
2023-03-19T03:47:23.985Z,100.00
2023-03-19T03:49:50.980Z,100.00
2023-03-19T03:52:17.859Z,100.00
2023-03-19T03:54:44.500Z,100.00
2023-03-19T03:57:11.040Z,100.00
2023-03-19T03:59:37.600Z,100.00
2023-03-19T04:02:04.121Z,100.00
2023-03-19T04:04:31.182Z,100.00
2023-03-19T04:06:57.748Z,100.00
2023-03-19T04:09:24.220Z,100.00
2023-03-19T04:11:51.925Z,100.00
2023-03-19T04:14:18.520Z,100.00
2023-03-19T04:16:45.001Z,100.00
2023-03-19T04:19:11.538Z,100.00
2023-03-19T04:21:38.033Z,100.00
2023-03-19T04:24:04.944Z,100.00
2023-03-19T04:26:31.780Z,100.00
2023-03-19T04:28:58.864Z,100.00
2023-03-19T04:31:25.486Z,100.00
2023-03-19T04:33:52.528Z,100.00
2023-03-19T04:36:19.111Z,100.00
2023-03-19T04:38:45.708Z,100.00
2023-03-19T04:41:12.268Z,100.00
2023-03-19T04:43:38.738Z,100.00
2023-03-19T04:46:06.988Z,100.00
2023-03-19T04:48:35.933Z,100.00
2023-03-19T04:51:03.870Z,100.00
2023-03-19T04:53:30.435Z,100.00
2023-03-19T04:55:57.294Z,100.00
2023-03-19T04:58:24.178Z,100.00
2023-03-19T05:00:50.684Z,100.00
2023-03-19T05:03:17.358Z,100.00
2023-03-19T05:05:43.880Z,100.00
2023-03-19T05:08:10.461Z,100.00
2023-03-19T05:10:38.061Z,100.00
2023-03-19T05:13:05.062Z,100.00
2023-03-19T05:15:31.877Z,100.00
2023-03-19T05:17:58.920Z,100.00
2023-03-19T05:20:25.530Z,100.00
2023-03-19T05:22:53.281Z,100.00
2023-03-19T05:25:19.746Z,100.00
2023-03-19T05:27:46.336Z,100.00
2023-03-19T05:30:13.133Z,100.00
2023-03-19T05:32:40.857Z,100.00
2023-03-19T05:35:08.041Z,100.00
2023-03-19T05:37:34.677Z,100.00
2023-03-19T05:40:01.118Z,100.00
2023-03-19T05:42:27.689Z,100.00
2023-03-19T05:44:54.677Z,100.00
2023-03-19T05:47:21.519Z,100.00
2023-03-19T05:49:48.120Z,100.00
2023-03-19T05:52:14.694Z,100.00
2023-03-19T05:54:41.664Z,100.00
2023-03-19T05:57:08.318Z,100.00
2023-03-19T05:59:34.931Z,100.00
2023-03-19T06:02:01.777Z,100.00
2023-03-19T06:04:28.302Z,100.00
2023-03-19T06:06:54.755Z,100.00
2023-03-19T06:09:21.320Z,100.00
2023-03-19T06:11:47.772Z,100.00
2023-03-19T06:14:14.460Z,100.00
2023-03-19T06:16:40.953Z,100.00
2023-03-19T06:19:07.460Z,100.00
2023-03-19T06:21:33.930Z,100.00
2023-03-19T06:24:00.568Z,100.00
2023-03-19T06:26:27.588Z,100.00
2023-03-19T06:28:54.332Z,100.00
2023-03-19T06:31:21.463Z,100.00
2023-03-19T06:33:49.144Z,100.00
2023-03-19T06:36:15.731Z,100.00
2023-03-19T06:38:42.194Z,100.00
2023-03-19T06:41:08.829Z,100.00
2023-03-19T06:43:38.197Z,100.00
2023-03-19T06:46:05.291Z,100.00
2023-03-19T06:48:31.779Z,100.00
2023-03-19T06:50:58.325Z,100.00
2023-03-19T06:53:25.524Z,100.00
2023-03-19T06:55:52.079Z,100.00
2023-03-19T06:58:18.601Z,100.00
2023-03-19T07:00:45.234Z,100.00
2023-03-19T07:03:12.359Z,100.00
2023-03-19T07:05:39.028Z,100.00
2023-03-19T07:08:11.797Z,100.00
2023-03-19T07:10:39.717Z,100.00
2023-03-19T07:13:06.856Z,100.00
2023-03-19T07:15:34.154Z,100.00
2023-03-19T07:18:00.779Z,100.00
2023-03-19T07:20:27.373Z,100.00
2023-03-19T07:22:54.233Z,100.00
2023-03-19T07:25:21.198Z,100.00
2023-03-19T07:27:47.827Z,100.00
2023-03-19T07:30:15.698Z,100.00
2023-03-19T07:32:43.110Z,100.00
2023-03-19T07:35:10.877Z,100.00
2023-03-19T07:37:37.450Z,100.00
2023-03-19T07:40:05.235Z,100.00
2023-03-19T07:42:31.984Z,100.00
2023-03-19T07:44:58.515Z,100.00
2023-03-19T07:47:29.530Z,100.00
2023-03-19T07:49:57.113Z,100.00
2023-03-19T07:52:25.120Z,100.00
2023-03-19T07:54:52.560Z,100.00
2023-03-19T07:57:19.592Z,100.00
2023-03-19T07:59:46.521Z,100.00
2023-03-19T08:02:13.594Z,100.00
2023-03-19T08:04:41.483Z,100.00
2023-03-19T08:07:10.802Z,100.00
2023-03-19T08:09:37.627Z,100.00
2023-03-19T08:12:05.588Z,100.00
2023-03-19T08:14:33.073Z,100.00
2023-03-19T08:17:00.410Z,100.00
2023-03-19T08:19:26.947Z,100.00
2023-03-19T08:21:53.587Z,100.00
2023-03-19T08:24:20.307Z,100.00
2023-03-19T08:26:48.714Z,100.00
2023-03-19T08:29:17.284Z,100.00
2023-03-19T08:31:45.431Z,100.00
2023-03-19T08:34:12.025Z,100.00
2023-03-19T08:36:38.564Z,100.00
2023-03-19T08:39:05.147Z,100.00
2023-03-19T08:41:31.634Z,100.00
2023-03-19T08:43:58.232Z,100.00
2023-03-19T08:46:25.591Z,100.00
2023-03-19T08:48:52.077Z,100.00
2023-03-19T08:51:18.555Z,100.00
2023-03-19T08:53:45.111Z,100.00
2023-03-19T08:56:11.686Z,100.00
2023-03-19T08:58:38.450Z,100.00
2023-03-19T09:01:10.968Z,100.00
2023-03-19T09:03:38.807Z,100.00
2023-03-19T09:06:07.790Z,100.00
2023-03-19T09:08:35.556Z,100.00
2023-03-19T09:11:02.343Z,100.00
2023-03-19T09:13:28.973Z,100.00
2023-03-19T09:15:55.971Z,100.00
2023-03-19T09:18:25.499Z,100.00
2023-03-19T09:20:55.297Z,100.00
2023-03-19T09:23:22.492Z,100.00
2023-03-19T09:25:49.485Z,100.00
2023-03-19T09:28:16.124Z,100.00
2023-03-19T09:30:43.471Z,100.00
2023-03-19T09:33:10.046Z,100.00
2023-03-19T09:35:39.769Z,100.00
2023-03-19T09:38:06.972Z,100.00
2023-03-19T09:40:44.140Z,100.00
2023-03-19T09:43:27.964Z,100.00
2023-03-19T09:45:54.574Z,100.00
2023-03-19T09:48:34.517Z,100.00
2023-03-19T09:51:06.580Z,100.00
2023-03-19T09:54:01.945Z,100.00
2023-03-19T09:56:28.680Z,100.00
2023-03-19T09:58:55.412Z,100.00
2023-03-19T10:01:35.431Z,100.00
2023-03-19T10:04:32.868Z,98.19
2023-03-19T10:07:17.623Z,95.36
2023-03-19T10:09:56.159Z,92.06
2023-03-19T10:13:01.253Z,90.74
2023-03-19T10:15:46.957Z,90.70
2023-03-19T10:18:19.776Z,91.06
2023-03-19T10:20:58.398Z,91.53
2023-03-19T10:23:50.287Z,93.66
2023-03-19T10:26:22.404Z,87.57
2023-03-19T10:29:04.886Z,87.27
2023-03-19T10:31:40.813Z,82.04
2023-03-19T10:34:21.216Z,81.93
2023-03-19T10:36:47.723Z,80.90
2023-03-19T10:39:19.043Z,78.03
2023-03-19T10:41:54.459Z,63.38
2023-03-19T10:44:37.395Z,49.34
2023-03-19T10:47:12.018Z,40.75
2023-03-19T10:49:38.658Z,38.15
2023-03-19T10:52:06.791Z,39.39
2023-03-19T10:54:33.329Z,39.72
2023-03-19T10:57:01.548Z,40.24
2023-03-19T10:59:30.942Z,39.58
2023-03-19T11:02:19.528Z,37.61
2023-03-19T11:04:46.930Z,40.81
2023-03-19T11:07:17.910Z,45.38
2023-03-19T11:09:48.336Z,55.23
2023-03-19T11:12:19.841Z,70.01
2023-03-19T11:14:52.374Z,73.70
2023-03-19T11:17:49.902Z,75.44
2023-03-19T11:20:35.116Z,80.79
2023-03-19T11:23:06.219Z,82.98
2023-03-19T11:25:42.273Z,83.71
2023-03-19T11:28:19.730Z,65.91
2023-03-19T11:31:02.382Z,56.89
2023-03-19T11:33:54.504Z,68.42
2023-03-19T11:36:55.645Z,66.70
2023-03-19T11:39:28.433Z,68.82
2023-03-19T11:41:57.978Z,73.92
2023-03-19T11:44:45.834Z,79.89
2023-03-19T11:47:30.562Z,78.97
2023-03-19T11:50:08.767Z,76.99
2023-03-19T11:52:40.789Z,73.20
2023-03-19T11:55:32.454Z,78.11
2023-03-19T11:58:26.474Z,80.91
2023-03-19T12:00:55.208Z,84.29
2023-03-19T12:03:30.435Z,86.12
2023-03-19T12:06:00.937Z,93.57
2023-03-19T12:08:55.902Z,98.25
2023-03-19T12:11:41.872Z,99.01
2023-03-19T12:14:26.791Z,96.86
2023-03-19T12:17:16.320Z,100.00
2023-03-19T12:20:01.462Z,100.00
2023-03-19T12:22:43.144Z,100.00
2023-03-19T12:25:26.435Z,100.00
2023-03-19T12:28:00.419Z,100.00
2023-03-19T12:30:34.711Z,100.00
2023-03-19T12:33:26.413Z,100.00
2023-03-19T12:35:56.931Z,100.00
2023-03-19T12:38:33.720Z,100.00
2023-03-19T12:41:07.952Z,100.00
2023-03-19T12:43:42.310Z,100.00
2023-03-19T12:46:13.783Z,100.00
2023-03-19T12:49:03.020Z,100.00
2023-03-19T12:51:42.162Z,100.00
2023-03-19T12:54:14.528Z,100.00
2023-03-19T12:57:01.785Z,100.00
2023-03-19T12:59:37.237Z,100.00
2023-03-19T13:02:18.909Z,100.00
2023-03-19T13:04:55.694Z,100.00
2023-03-19T13:07:28.446Z,100.00
2023-03-19T13:10:06.905Z,100.00
2023-03-19T13:12:38.259Z,100.00
2023-03-19T13:15:21.182Z,100.00
2023-03-19T13:18:03.505Z,100.00
2023-03-19T13:20:48.787Z,100.00
2023-03-19T13:23:24.494Z,100.00
2023-03-19T13:25:54.162Z,100.00
2023-03-19T13:28:31.830Z,100.00
2023-03-19T13:31:03.621Z,100.00
2023-03-19T13:33:31.782Z,100.00
2023-03-19T13:36:03.289Z,100.00
2023-03-19T13:38:40.387Z,100.00
2023-03-19T13:41:32.562Z,100.00
2023-03-19T13:44:00.276Z,100.00
2023-03-19T13:46:35.598Z,100.00
2023-03-19T13:49:26.577Z,100.00
2023-03-19T13:52:21.740Z,100.00
2023-03-19T13:54:54.051Z,100.00
2023-03-19T13:57:32.632Z,100.00
2023-03-19T14:00:37.684Z,100.00
2023-03-19T14:03:06.344Z,100.00
2023-03-19T14:05:36.335Z,100.00
2023-03-19T14:08:17.218Z,100.00
2023-03-19T14:10:49.983Z,100.00
2023-03-19T14:13:40.257Z,100.00
2023-03-19T14:16:21.473Z,100.00
2023-03-19T14:18:49.754Z,100.00
2023-03-19T14:21:31.898Z,100.00
2023-03-19T14:24:57.867Z,100.00
2023-03-19T14:27:17.109Z,100.00
2023-03-19T14:29:45.664Z,100.00
2023-03-19T14:32:18.338Z,100.00
2023-03-19T14:34:46.654Z,100.00
2023-03-19T14:37:22.214Z,100.00
2023-03-19T14:40:02.611Z,100.00
2023-03-19T14:42:50.409Z,100.00
2023-03-19T14:45:41.712Z,100.00
2023-03-19T14:48:33.397Z,100.00
2023-03-19T14:51:09.378Z,100.00
2023-03-19T14:53:41.661Z,100.00
2023-03-19T14:56:16.583Z,100.00
2023-03-19T14:58:50.625Z,100.00
2023-03-19T15:01:18.762Z,100.00
2023-03-19T15:03:46.162Z,100.00
2023-03-19T15:06:15.500Z,100.00
2023-03-19T15:08:42.549Z,100.00
2023-03-19T15:11:15.198Z,100.00
2023-03-19T15:13:59.921Z,100.00
2023-03-19T15:16:35.805Z,100.00
2023-03-19T15:19:02.505Z,100.00
2023-03-19T15:21:31.415Z,100.00
2023-03-19T15:23:58.218Z,100.00
2023-03-19T15:26:33.398Z,100.00
2023-03-19T15:29:00.236Z,100.00
2023-03-19T15:32:04.808Z,100.00
2023-03-19T15:34:33.294Z,100.00
2023-03-19T15:37:04.642Z,100.00
2023-03-19T15:39:36.215Z,100.00
2023-03-19T15:42:04.783Z,100.00
2023-03-19T15:44:39.782Z,100.00
2023-03-19T15:47:11.994Z,100.00
2023-03-19T15:49:44.065Z,100.00
2023-03-19T15:52:15.963Z,100.00
2023-03-19T15:54:42.928Z,100.00
2023-03-19T15:57:13.096Z,100.00
2023-03-19T15:59:39.810Z,100.00
2023-03-19T16:02:18.751Z,100.00
2023-03-19T16:05:14.119Z,100.00
2023-03-19T16:07:43.696Z,100.00
2023-03-19T16:10:32.410Z,100.00
2023-03-19T16:13:05.163Z,100.00
2023-03-19T16:15:44.104Z,100.00
2023-03-19T16:18:16.529Z,100.00
2023-03-19T16:20:45.986Z,100.00
2023-03-19T16:23:18.461Z,100.00
2023-03-19T16:25:46.503Z,100.00
2023-03-19T16:28:23.978Z,100.00
2023-03-19T16:30:51.606Z,100.00
2023-03-19T16:33:19.950Z,100.00
2023-03-19T16:35:46.858Z,100.00
2023-03-19T16:38:17.476Z,100.00
2023-03-19T16:40:48.822Z,100.00
2023-03-19T16:43:23.217Z,100.00
2023-03-19T16:45:52.113Z,100.00
2023-03-19T16:48:19.001Z,100.00
2023-03-19T16:50:47.635Z,100.00
2023-03-19T16:53:26.041Z,100.00
2023-03-19T16:55:55.580Z,100.00
2023-03-19T16:58:29.916Z,100.00
2023-03-19T17:00:56.634Z,100.00
2023-03-19T17:03:23.289Z,100.00
2023-03-19T17:05:50.129Z,100.00
2023-03-19T17:08:16.880Z,100.00
2023-03-19T17:10:49.286Z,100.00
2023-03-19T17:13:22.909Z,100.00
2023-03-19T17:15:50.931Z,100.00
2023-03-19T17:18:22.070Z,100.00
2023-03-19T17:20:57.170Z,100.00
2023-03-19T17:23:26.972Z,100.00
2023-03-19T17:25:54.197Z,100.00
2023-03-19T17:28:20.904Z,100.00
2023-03-19T17:30:47.657Z,100.00
2023-03-19T17:33:25.087Z,100.00
2023-03-19T17:35:53.482Z,100.00
2023-03-19T17:38:22.200Z,100.00
2023-03-19T17:40:48.781Z,100.00
2023-03-19T17:43:15.527Z,100.00
2023-03-19T17:45:46.759Z,100.00
2023-03-19T17:48:21.477Z,100.00
2023-03-19T17:50:49.512Z,100.00
2023-03-19T17:53:18.648Z,100.00
2023-03-19T17:55:46.657Z,100.00
2023-03-19T17:58:18.405Z,100.00
2023-03-19T18:00:46.678Z,100.00
2023-03-19T18:03:19.705Z,100.00
2023-03-19T18:05:46.403Z,100.00
2023-03-19T18:08:19.265Z,100.00
2023-03-19T18:10:45.901Z,100.00
2023-03-19T18:13:12.722Z,100.00
2023-03-19T18:15:41.136Z,100.00
2023-03-19T18:18:16.109Z,100.00
2023-03-19T18:20:42.738Z,100.00
2023-03-19T18:23:11.639Z,100.00
2023-03-19T18:25:38.115Z,100.00
2023-03-19T18:28:05.532Z,100.00
2023-03-19T18:30:34.717Z,100.00
2023-03-19T18:33:04.839Z,100.00
2023-03-19T18:35:40.753Z,100.00
2023-03-19T18:38:19.451Z,100.00
2023-03-19T18:40:47.171Z,100.00
2023-03-19T18:43:16.091Z,100.00
2023-03-19T18:45:48.563Z,100.00
2023-03-19T18:48:24.760Z,100.00
2023-03-19T18:50:52.170Z,100.00
2023-03-19T18:53:19.064Z,100.00
2023-03-19T18:55:47.031Z,100.00
2023-03-19T18:58:28.070Z,100.00
2023-03-19T19:00:55.145Z,100.00
2023-03-19T19:03:28.600Z,100.00
2023-03-19T19:05:56.246Z,100.00
2023-03-19T19:08:25.349Z,100.00
2023-03-19T19:10:55.601Z,100.00
2023-03-19T19:13:26.382Z,100.00
2023-03-19T19:15:53.422Z,100.00
2023-03-19T19:18:22.557Z,100.00
2023-03-19T19:20:51.421Z,100.00
2023-03-19T19:23:19.367Z,100.00
2023-03-19T19:25:48.126Z,100.00
2023-03-19T19:28:22.077Z,100.00
2023-03-19T19:30:49.494Z,100.00
2023-03-19T19:33:18.693Z,100.00
2023-03-19T19:35:45.847Z,100.00
2023-03-19T19:38:13.632Z,100.00
2023-03-19T19:40:42.984Z,100.00
2023-03-19T19:43:18.304Z,100.00
2023-03-19T19:45:47.215Z,100.00
2023-03-19T19:48:16.778Z,100.00
2023-03-19T19:50:44.752Z,100.00
2023-03-19T19:53:11.525Z,100.00
2023-03-19T19:55:38.860Z,100.00
2023-03-19T19:58:08.538Z,100.00
2023-03-19T20:00:35.311Z,100.00
2023-03-19T20:03:01.842Z,100.00
2023-03-19T20:05:32.291Z,100.00
2023-03-19T20:08:02.731Z,100.00
2023-03-19T20:10:30.730Z,100.00
2023-03-19T20:13:01.665Z,100.00
2023-03-19T20:15:33.007Z,100.00
2023-03-19T20:18:02.284Z,100.00
2023-03-19T20:20:32.484Z,100.00
2023-03-19T20:23:01.627Z,100.00
2023-03-19T20:25:32.514Z,100.00
2023-03-19T20:28:01.396Z,100.00
2023-03-19T20:30:31.941Z,100.00
2023-03-19T20:32:59.719Z,100.00
2023-03-19T20:35:29.242Z,100.00
2023-03-19T20:37:57.568Z,100.00
2023-03-19T20:40:46.708Z,100.00
2023-03-19T20:43:33.274Z,100.00
2023-03-19T20:46:02.937Z,100.00
2023-03-19T20:48:30.757Z,100.00
2023-03-19T20:50:58.352Z,100.00
2023-03-19T20:53:25.015Z,100.00
2023-03-19T20:55:52.232Z,100.00
2023-03-19T20:58:34.668Z,100.00
2023-03-19T21:01:01.371Z,100.00
2023-03-19T21:03:30.060Z,100.00
2023-03-19T21:06:05.234Z,100.00
2023-03-19T21:08:39.136Z,100.00
2023-03-19T21:11:08.884Z,100.00
2023-03-19T21:13:35.522Z,100.00
2023-03-19T21:16:02.062Z,100.00
2023-03-19T21:18:28.603Z,100.00
2023-03-19T21:20:57.227Z,100.00
2023-03-19T21:23:37.287Z,100.00
2023-03-19T21:26:19.485Z,100.00
2023-03-19T21:28:49.615Z,100.00
2023-03-19T21:31:18.993Z,100.00
2023-03-19T21:33:46.673Z,100.00
2023-03-19T21:36:14.313Z,100.00
2023-03-19T21:38:41.780Z,100.00
2023-03-19T21:41:28.892Z,100.00
2023-03-19T21:43:57.858Z,100.00
2023-03-19T21:46:27.535Z,100.00
2023-03-19T21:48:55.378Z,100.00
2023-03-19T21:51:23.658Z,100.00
2023-03-19T21:53:50.169Z,100.00
2023-03-19T21:56:25.609Z,100.00
2023-03-19T21:58:53.350Z,100.00
2023-03-19T22:01:23.783Z,100.00
2023-03-19T22:03:51.759Z,100.00
2023-03-19T22:06:19.227Z,100.00
2023-03-19T22:08:48.181Z,100.00
2023-03-19T22:11:22.878Z,100.00
2023-03-19T22:13:49.547Z,100.00
2023-03-19T22:16:23.928Z,100.00
2023-03-19T22:18:51.978Z,100.00
2023-03-19T22:21:21.754Z,100.00
2023-03-19T22:23:48.913Z,100.00
2023-03-19T22:26:29.450Z,100.00
2023-03-19T22:28:58.490Z,100.00
2023-03-19T22:31:25.578Z,100.00
2023-03-19T22:33:52.666Z,100.00
2023-03-19T22:36:19.310Z,100.00
2023-03-19T22:38:47.009Z,100.00
2023-03-19T22:41:39.786Z,100.00
2023-03-19T22:44:10.877Z,100.00
2023-03-19T22:46:37.376Z,100.00
2023-03-19T22:49:12.717Z,100.00
2023-03-19T22:51:39.292Z,100.00
2023-03-19T22:54:06.016Z,100.00
2023-03-19T22:56:32.499Z,100.00
2023-03-19T22:58:59.174Z,100.00
2023-03-19T23:01:32.728Z,100.00
2023-03-19T23:04:14.380Z,100.00
2023-03-19T23:06:41.154Z,100.00
2023-03-19T23:09:13.841Z,100.00
2023-03-19T23:11:40.344Z,100.00
2023-03-19T23:14:10.333Z,100.00
2023-03-19T23:16:43.627Z,100.00
2023-03-19T23:19:18.345Z,100.00
2023-03-19T23:21:44.861Z,100.00
2023-03-19T23:24:13.168Z,100.00
2023-03-19T23:26:43.040Z,100.00
2023-03-19T23:29:22.383Z,100.00
2023-03-19T23:31:50.765Z,100.00
2023-03-19T23:34:17.873Z,100.00
2023-03-19T23:36:44.697Z,100.00
2023-03-19T23:39:11.474Z,100.00
2023-03-19T23:41:48.342Z,100.00
2023-03-19T23:44:16.770Z,100.00
2023-03-19T23:46:45.029Z,100.00
2023-03-19T23:49:18.260Z,100.00
2023-03-19T23:51:44.769Z,100.00
2023-03-19T23:54:28.608Z,100.00
2023-03-19T23:57:01.639Z,100.00
2023-03-19T23:59:34.471Z,100.00
